Jessica S. Settoon — WDD9545 — position and weather

sailwx.info

Track history (hours):
 
Tides and Currents Weather Stations Pressure Air Temp Water Temp Dewpoint Dewpoint Depression Visibility Wind Speed Wind Dir Waves Ship Positions

Jessica S. Settoon

Owner: Settoon Towing LLC, Houma, LA. More information available from US FCC via Universal Licensing System and Coast Guard Vessel Documentation Center.

Last reported at 2018-Feb-17 01:23 UTC. Time now 2018-Feb-18 05:09 UTC.
Position N 29°33' W 090°26'.

Length 17 m; draft 3 m.

Type: Tug. MMSI: 367312940.

Date/timePositionNaut miles runAvg speedWind from/ knotsBaromVisibWave heightAir tempDewpointWater temp
2018-Feb-17 01:23N 29°33' W 090°26'2 6.5
2018-Feb-17 01:00N 29°34' W 090°29'4 7.3
2018-Feb-17 00:30N 29°34' W 090°33'3 6.6
2018-Feb-17 00:00N 29°35' W 090°36'3 5.5
2018-Feb-16 23:30N 29°36' W 090°39'3 5.7
2018-Feb-16 23:00N 29°37' W 090°42'2 3.9
2018-Feb-16 22:30N 29°35' W 090°43'0 0.0
2018-Feb-16 22:00N 29°35' W 090°43'1 1.2
2018-Feb-16 21:30N 29°34' W 090°43'2 4.0
2018-Feb-16 21:00N 29°33' W 090°45'3 5.4
2018-Feb-16 20:27N 29°32' W 090°48'  
2018-Feb-14 14:13N 29°35' W 090°58'2 4.6
2018-Feb-14 13:52N 29°34' W 090°57'2 5.4
2018-Feb-14 13:30N 29°33' W 090°55'1 1.1
2018-Feb-14 12:44N 29°33' W 090°54'1 1.8
2018-Feb-14 12:16N 29°32' W 090°53'1 3.5
2018-Feb-14 11:57N 29°32' W 090°52'0 0.3
2018-Feb-14 11:29N 29°32' W 090°52'0 0.0
2018-Feb-14 10:59N 29°32' W 090°52'0 0.0
2018-Feb-14 10:27N 29°32' W 090°52'0 0.0
2018-Feb-14 10:00N 29°32' W 090°52'0 0.4
2018-Feb-14 09:30N 29°32' W 090°51'3 5.8
2018-Feb-14 09:00N 29°32' W 090°48'2 4.9
2018-Feb-14 08:30N 29°33' W 090°45'2 4.8
2018-Feb-14 08:00N 29°34' W 090°43'2 4.4
2018-Feb-14 07:30N 29°37' W 090°43'1 1.3
2018-Feb-14 07:00N 29°37' W 090°42'0 0.0
2018-Feb-14 06:30N 29°37' W 090°42'2 4.1
2018-Feb-14 06:00N 29°36' W 090°40'3 5.3
2018-Feb-14 05:30N 29°35' W 090°37'2 3.3
2018-Feb-14 05:00N 29°35' W 090°35'3 5.3
2018-Feb-14 04:30N 29°34' W 090°32'3 5.9
2018-Feb-14 03:58N 29°34' W 090°29'  
2018-Feb-11 17:43N 29°33' W 090°24'2 7.3
2018-Feb-11 17:30N 29°33' W 090°26'4 7.2
2018-Feb-11 16:59N 29°34' W 090°30'3 6.9
2018-Feb-11 16:29N 29°34' W 090°34'3 6.2
2018-Feb-11 16:00N 29°35' W 090°38'3 6.1
2018-Feb-11 15:30N 29°36' W 090°41'2 3.4
2018-Feb-11 15:00N 29°36' W 090°43'1 1.6
2018-Feb-11 14:30N 29°35' W 090°43'0 0.0
2018-Feb-11 14:00N 29°35' W 090°43'0 0.0
2018-Feb-11 13:30N 29°35' W 090°43'3 5.1
2018-Feb-11 13:00N 29°33' W 090°45'3 6.7
2018-Feb-11 12:30N 29°32' W 090°49'  
Track history (hours):
 
Tides and Currents Weather Stations Pressure Air Temp Water Temp Dewpoint Dewpoint Depression Visibility Wind Speed Wind Dir Waves Ship Positions

Jessica S. Settoon

Owner: Settoon Towing LLC, Houma, LA. More information available from US FCC via Universal Licensing System and Coast Guard Vessel Documentation Center.

Last reported at 2018-Feb-17 01:23 UTC. Time now 2018-Feb-18 05:09 UTC.
Position N 29°33' W 090°26'.

Length 17 m; draft 3 m.

Type: Tug. MMSI: 367312940.

Date/timePositionNaut miles runAvg speedWind from/ knotsBaromVisibWave heightAir tempDewpointWater temp
2018-Feb-17 01:23N 29°33' W 090°26'2 6.5
2018-Feb-17 01:00N 29°34' W 090°29'4 7.3
2018-Feb-17 00:30N 29°34' W 090°33'3 6.6
2018-Feb-17 00:00N 29°35' W 090°36'3 5.5
2018-Feb-16 23:30N 29°36' W 090°39'3 5.7
2018-Feb-16 23:00N 29°37' W 090°42'2 3.9
2018-Feb-16 22:30N 29°35' W 090°43'0 0.0
2018-Feb-16 22:00N 29°35' W 090°43'1 1.2
2018-Feb-16 21:30N 29°34' W 090°43'2 4.0
2018-Feb-16 21:00N 29°33' W 090°45'3 5.4
2018-Feb-16 20:27N 29°32' W 090°48'  
2018-Feb-14 14:13N 29°35' W 090°58'2 4.6
2018-Feb-14 13:52N 29°34' W 090°57'2 5.4
2018-Feb-14 13:30N 29°33' W 090°55'1 1.1
2018-Feb-14 12:44N 29°33' W 090°54'1 1.8
2018-Feb-14 12:16N 29°32' W 090°53'1 3.5
2018-Feb-14 11:57N 29°32' W 090°52'0 0.3
2018-Feb-14 11:29N 29°32' W 090°52'0 0.0
2018-Feb-14 10:59N 29°32' W 090°52'0 0.0
2018-Feb-14 10:27N 29°32' W 090°52'0 0.0
2018-Feb-14 10:00N 29°32' W 090°52'0 0.4
2018-Feb-14 09:30N 29°32' W 090°51'3 5.8
2018-Feb-14 09:00N 29°32' W 090°48'2 4.9
2018-Feb-14 08:30N 29°33' W 090°45'2 4.8
2018-Feb-14 08:00N 29°34' W 090°43'2 4.4
2018-Feb-14 07:30N 29°37' W 090°43'1 1.3
2018-Feb-14 07:00N 29°37' W 090°42'0 0.0
2018-Feb-14 06:30N 29°37' W 090°42'2 4.1
2018-Feb-14 06:00N 29°36' W 090°40'3 5.3
2018-Feb-14 05:30N 29°35' W 090°37'2 3.3
2018-Feb-14 05:00N 29°35' W 090°35'3 5.3
2018-Feb-14 04:30N 29°34' W 090°32'3 5.9
2018-Feb-14 03:58N 29°34' W 090°29'  
2018-Feb-11 17:43N 29°33' W 090°24'2 7.3
2018-Feb-11 17:30N 29°33' W 090°26'4 7.2
2018-Feb-11 16:59N 29°34' W 090°30'3 6.9
2018-Feb-11 16:29N 29°34' W 090°34'3 6.2
2018-Feb-11 16:00N 29°35' W 090°38'3 6.1
2018-Feb-11 15:30N 29°36' W 090°41'2 3.4
2018-Feb-11 15:00N 29°36' W 090°43'1 1.6
2018-Feb-11 14:30N 29°35' W 090°43'0 0.0
2018-Feb-11 14:00N 29°35' W 090°43'0 0.0
2018-Feb-11 13:30N 29°35' W 090°43'3 5.1
2018-Feb-11 13:00N 29°33' W 090°45'3 6.7
2018-Feb-11 12:30N 29°32' W 090°49'  

Dump ship's entire track history